LPMAEGPK

Guest
Details From LPMA - Madeira
To EGPK - Prestwick
Flight Number -
Tags Generated
Created
Modified
Stats Distance 1,463 nm / 2,709 km
Max Altitude 0 ft / 0 m
Waypoints 4
Social Downloads 1
Likes 0
Share VATSIM

Download

Looking for another format? Having issues loading an existing format? Contact us
Advertisement - Login to hide

Notes

Generated

Route

LPMA MOPAT TRN EGPK

ID Type Via Altitude Latitude Longitude Leg Dist Tot Dist Heading (true) Name
O LPMA APT - 0 ft / 0 m 32.68900˚ -16.78409˚ - 0 nm - -
MOPAT FIX - 0 ft / 0 m 51.49861˚ -7.09361˚ 1206 nm 1206 nm 18° / 24° -
TRN VOR - 0 ft / 0 m 55.31333˚ -4.78389˚ 243 nm 1450 nm 19° / 21° TURNBERRY VOR-DME
O EGPK APT - 0 ft / 0 m 55.48836˚ -4.58741˚ 12 nm 1462 nm 32° / 33° -

Altitude Profile

Advertisement - Login to hide

Weather


0- 5 10 15 20 25 30 35+ Temperature / ° C

Clouds and Precipitation
Forecast for 2018-05-24 12:00 UTC. Updated 5 hours ago

Ground ~20,000 ft ~40,000 ft Winds

LPMA

Details ICAO LPMA (FNC)
Name Madeira
Region Portugal
Timezone Atlantic/Madeira (UTC+1.0)
Stats Elevation 192 ft / 59 m (AMSL)
Location 32.697704° -16.774449°
Runways 1
Magnetic Variation 4.927° W

METAR

LPMA 241600Z 01010G21KT 320V090 9999 SCT015 19/12 Q1018

Decode

TAF

TAF LPMA 241100Z 2412/2512 36013KT 9999 SCT015 TEMPO 2412/2421 35018G28KT BECMG 2421/2424 35008KT BECMG 2510/2512 01015KT

Decode

Departure Runways

ID Width Length Bearing (true) Bearing (mag) Surface Threshold Offset Overrun Length
05 141 ft / 43 m 8,683 ft / 2,647 m 42.98° 47.91° Asphalt 472 ft / 144 m 0 ft / 0 m
23 141 ft / 43 m 8,683 ft / 2,647 m 222.99° 227.92° Asphalt 466 ft / 142 m 0 ft / 0 m

EGPK

Details ICAO EGPK (PIK)
Name Prestwick
Region United Kingdom
Timezone Europe/London (UTC+1.0)
Stats Elevation 65 ft / 20 m (AMSL)
Location 55.502302° -4.588363°
Runways 2
Magnetic Variation 2.653° W

METAR

EGPK 241550Z 02005KT 340V050 9999 FEW020 24/09 Q1022

Decode

TAF

TAF TAF EGPK 241102Z 2412/2512 03008KT CAVOK

Decode

Destination Runways

ID Width Length Bearing (true) Bearing (mag) Surface Threshold Offset Overrun Length
03 148 ft / 45 m 6,534 ft / 1,992 m 23.69° 26.34° Asphalt 538 ft / 164 m 0 ft / 0 m
13 151 ft / 46 m 9,789 ft / 2,984 m 121.38° 124.03° Asphalt 817 ft / 249 m 0 ft / 0 m
21 148 ft / 45 m 6,534 ft / 1,992 m 203.71° 206.36° Asphalt 0 ft / 0 m 0 ft / 0 m
31 151 ft / 46 m 9,789 ft / 2,984 m 301.42° 304.07° Asphalt 0 ft / 0 m 0 ft / 0 m

Approach Navaids

Runway Type Ident Frequency Range Bearing (true) Bearing (mag) Slope Elevation
13 Localiser IPP 110.30 MHz 18 nm / 33 km 121.42° 124.08° - 66 ft / 20 m (AMSL)
13 Glidescope IPP 110.30 MHz 10 nm / 19 km 121.40° 124.05° 3.00° 53 ft / 16 m (AMSL)
13 DME IPP 110.30 MHz 18 nm / 33 km - - - 48 ft / 15 m (AMSL)
31 Localiser IKK 110.30 MHz 18 nm / 33 km 301.38° 304.03° - 38 ft / 12 m (AMSL)
31 Glidescope IKK 110.30 MHz 10 nm / 19 km 301.40° 304.05° 3.50° 56 ft / 17 m (AMSL)
31 DME IKK 110.30 MHz 18 nm / 33 km - - - 48 ft / 15 m (AMSL)